createdAt,value
2018-04-17T00:01:37.850Z,99.90
2018-04-17T00:04:05.350Z,99.90
2018-04-17T00:06:32.828Z,99.90
2018-04-17T00:09:00.325Z,99.90
2018-04-17T00:11:27.797Z,99.90
2018-04-17T00:13:56.066Z,99.90
2018-04-17T00:16:25.095Z,99.90
2018-04-17T00:18:52.568Z,99.90
2018-04-17T00:21:20.077Z,99.90
2018-04-17T00:23:48.319Z,99.90
2018-04-17T00:26:16.785Z,99.90
2018-04-17T00:28:44.343Z,99.90
2018-04-17T00:31:12.880Z,99.90
2018-04-17T00:33:40.366Z,99.90
2018-04-17T00:36:07.883Z,99.90
2018-04-17T00:38:36.130Z,99.90
2018-04-17T00:41:03.645Z,99.90
2018-04-17T00:43:31.138Z,99.90
2018-04-17T00:45:58.648Z,99.90
2018-04-17T00:48:26.125Z,99.90
2018-04-17T00:50:53.637Z,99.90
2018-04-17T00:53:33.739Z,99.90
2018-04-17T00:56:01.228Z,99.90
2018-04-17T00:58:28.716Z,99.90
2018-04-17T01:00:56.981Z,99.90
2018-04-17T01:03:25.234Z,99.90
2018-04-17T01:05:52.762Z,99.90
2018-04-17T01:08:20.243Z,99.90
2018-04-17T01:10:47.738Z,99.90
2018-04-17T01:13:16.003Z,99.90
2018-04-17T01:15:44.256Z,99.90
2018-04-17T01:18:11.750Z,99.90
2018-04-17T01:20:39.233Z,99.90
2018-04-17T01:23:06.749Z,99.90
2018-04-17T01:25:34.231Z,99.90
2018-04-17T01:28:01.758Z,99.90
2018-04-17T01:30:29.236Z,99.90
2018-04-17T01:32:56.668Z,99.90
2018-04-17T01:35:24.219Z,99.90
2018-04-17T01:37:52.466Z,99.90
2018-04-17T01:40:19.977Z,99.90
2018-04-17T01:42:47.473Z,99.90
2018-04-17T01:45:14.958Z,99.90
2018-04-17T01:47:42.455Z,99.90
2018-04-17T01:50:10.704Z,99.90
2018-04-17T01:52:38.977Z,99.90
2018-04-17T01:55:07.261Z,99.90
2018-04-17T01:57:35.518Z,99.90
2018-04-17T02:00:03.776Z,99.90
2018-04-17T02:02:31.293Z,99.90
2018-04-17T02:04:58.781Z,99.90
2018-04-17T02:07:26.257Z,99.90
2018-04-17T02:09:54.761Z,99.90
2018-04-17T02:12:23.450Z,99.90
2018-04-17T02:14:50.969Z,99.90
2018-04-17T02:17:18.451Z,99.90
2018-04-17T02:19:45.973Z,99.90
2018-04-17T02:22:13.457Z,99.90
2018-04-17T02:24:41.737Z,99.90
2018-04-17T02:27:09.984Z,99.90
2018-04-17T02:29:39.146Z,99.90
2018-04-17T02:32:07.540Z,99.90
2018-04-17T02:34:35.806Z,99.90
2018-04-17T02:37:03.277Z,99.90
2018-04-17T02:39:30.791Z,99.90
2018-04-17T02:41:58.262Z,99.90
2018-04-17T02:44:25.821Z,99.90
2018-04-17T02:46:53.341Z,99.90
2018-04-17T02:49:21.587Z,99.90
2018-04-17T02:51:49.093Z,99.90
2018-04-17T02:54:17.394Z,99.90
2018-04-17T02:56:44.901Z,99.90
2018-04-17T02:59:12.374Z,99.90
2018-04-17T03:01:40.648Z,99.90
2018-04-17T03:04:08.909Z,99.90
2018-04-17T03:06:37.186Z,99.90
2018-04-17T03:09:05.483Z,99.90
2018-04-17T03:11:32.961Z,99.90
2018-04-17T03:14:00.467Z,99.90
2018-04-17T03:16:27.969Z,99.90
2018-04-17T03:18:55.445Z,99.90
2018-04-17T03:21:22.967Z,99.90
2018-04-17T03:23:50.468Z,99.90
2018-04-17T03:26:17.938Z,99.90
2018-04-17T03:28:45.459Z,99.90
2018-04-17T03:31:12.940Z,99.90
2018-04-17T03:33:41.070Z,99.90
2018-04-17T03:36:08.567Z,99.90
2018-04-17T03:38:36.033Z,99.90
2018-04-17T03:41:03.543Z,99.90
2018-04-17T03:43:31.041Z,99.90
2018-04-17T03:45:58.549Z,99.90
2018-04-17T03:48:26.029Z,99.90
2018-04-17T03:50:53.537Z,99.90
2018-04-17T03:53:21.774Z,99.90
2018-04-17T03:55:49.279Z,99.90
2018-04-17T03:58:17.526Z,99.90
2018-04-17T04:00:45.064Z,99.90
2018-04-17T04:03:12.541Z,99.90
2018-04-17T04:05:40.033Z,99.90
2018-04-17T04:08:07.536Z,99.90
2018-04-17T04:10:35.008Z,99.90
2018-04-17T04:13:02.506Z,99.90
2018-04-17T04:15:30.089Z,99.90
2018-04-17T04:18:09.514Z,99.90
2018-04-17T04:20:48.878Z,99.90
2018-04-17T04:23:29.434Z,99.90
2018-04-17T04:26:09.405Z,99.90
2018-04-17T04:28:36.894Z,99.90
2018-04-17T04:31:04.613Z,99.90
2018-04-17T04:33:32.120Z,99.90
2018-04-17T04:35:59.594Z,99.90
2018-04-17T04:38:27.129Z,99.90
2018-04-17T04:40:54.609Z,99.90
2018-04-17T04:43:22.086Z,99.90
2018-04-17T04:45:49.624Z,99.90
2018-04-17T04:48:17.137Z,99.90
2018-04-17T04:50:45.389Z,99.90
2018-04-17T04:53:12.872Z,99.90
2018-04-17T04:55:41.141Z,99.90
2018-04-17T04:58:09.471Z,99.90
2018-04-17T05:00:36.993Z,99.90
2018-04-17T05:03:04.486Z,99.90
2018-04-17T05:05:32.019Z,99.90
2018-04-17T05:07:59.602Z,99.90
2018-04-17T05:10:27.174Z,99.90
2018-04-17T05:12:55.363Z,99.90
2018-04-17T05:15:22.855Z,99.90
2018-04-17T05:17:51.309Z,99.90
2018-04-17T05:20:19.589Z,99.90
2018-04-17T05:22:47.874Z,99.90
2018-04-17T05:25:16.137Z,99.90
2018-04-17T05:27:44.381Z,99.90
2018-04-17T05:30:11.885Z,99.90
2018-04-17T05:32:40.150Z,99.90
2018-04-17T05:35:08.412Z,99.90
2018-04-17T05:37:36.692Z,99.90
2018-04-17T05:40:04.984Z,99.90
2018-04-17T05:42:33.234Z,99.90
2018-04-17T05:45:01.145Z,99.90
2018-04-17T05:47:28.672Z,99.90
2018-04-17T05:49:56.185Z,99.90
2018-04-17T05:52:23.681Z,99.90
2018-04-17T05:54:51.973Z,99.90
2018-04-17T05:57:20.466Z,99.90
2018-04-17T05:59:47.968Z,99.90
2018-04-17T06:02:15.518Z,99.90
2018-04-17T06:04:43.013Z,99.90
2018-04-17T06:07:11.290Z,99.90
2018-04-17T06:09:38.784Z,99.90
2018-04-17T06:12:06.306Z,99.90
2018-04-17T06:14:33.833Z,99.90
2018-04-17T06:17:01.365Z,99.90
2018-04-17T06:19:31.572Z,99.90
2018-04-17T06:21:59.939Z,99.90
2018-04-17T06:24:27.615Z,99.90
2018-04-17T06:26:55.124Z,99.90
2018-04-17T06:29:23.383Z,99.90
2018-04-17T06:31:50.883Z,99.90
2018-04-17T06:34:18.377Z,99.90
2018-04-17T06:36:45.881Z,99.90
2018-04-17T06:39:14.269Z,99.90
2018-04-17T06:41:41.833Z,99.90
2018-04-17T06:44:09.273Z,99.90
2018-04-17T06:46:37.553Z,99.90
2018-04-17T06:49:05.062Z,99.90
2018-04-17T06:51:32.543Z,99.90
2018-04-17T06:54:00.864Z,99.90
2018-04-17T06:56:28.385Z,99.90
2018-04-17T06:58:56.662Z,99.90
2018-04-17T07:01:24.936Z,99.90
2018-04-17T07:03:53.195Z,99.90
2018-04-17T07:06:20.708Z,99.90
2018-04-17T07:08:48.210Z,99.90
2018-04-17T07:11:15.724Z,99.90
2018-04-17T07:13:43.205Z,99.90
2018-04-17T07:16:10.719Z,99.90
2018-04-17T07:18:38.212Z,99.90
2018-04-17T07:21:05.715Z,99.90
2018-04-17T07:23:33.996Z,99.90
2018-04-17T07:26:01.527Z,99.90
2018-04-17T07:28:29.073Z,99.90
2018-04-17T07:30:56.560Z,99.90
2018-04-17T07:33:24.064Z,99.90
2018-04-17T07:35:51.595Z,99.90
2018-04-17T07:38:19.079Z,99.90
2018-04-17T07:40:46.718Z,99.90
2018-04-17T07:43:14.202Z,99.90
2018-04-17T07:45:41.687Z,99.90
2018-04-17T07:48:22.942Z,99.90
2018-04-17T07:50:50.431Z,99.90
2018-04-17T07:53:18.751Z,99.90
2018-04-17T07:55:46.564Z,99.90
2018-04-17T07:58:14.869Z,99.90
2018-04-17T08:00:42.362Z,99.90
2018-04-17T08:03:09.852Z,99.90
2018-04-17T08:05:37.359Z,99.90
2018-04-17T08:08:04.903Z,99.90
2018-04-17T08:10:32.386Z,99.90
2018-04-17T08:13:00.660Z,99.90
2018-04-17T08:15:28.147Z,99.90
2018-04-17T08:17:55.664Z,99.90
2018-04-17T08:20:23.145Z,99.90
2018-04-17T08:22:50.689Z,99.90
2018-04-17T08:25:18.172Z,99.90
2018-04-17T08:27:45.692Z,99.90
2018-04-17T08:30:13.201Z,99.90
2018-04-17T08:32:40.732Z,99.90
2018-04-17T08:35:08.232Z,99.90
2018-04-17T08:37:35.773Z,98.70
2018-04-17T08:40:03.254Z,99.90
2018-04-17T08:42:30.788Z,97.60
2018-04-17T08:44:59.951Z,96.90
2018-04-17T08:47:27.479Z,96.60
2018-04-17T08:49:55.000Z,94.70
2018-04-17T08:52:22.528Z,94.40
2018-04-17T08:54:50.012Z,94.00
2018-04-17T08:57:17.503Z,95.30
2018-04-17T08:59:45.034Z,94.90
2018-04-17T09:02:12.512Z,92.40
2018-04-17T09:04:40.012Z,92.10
2018-04-17T09:07:07.501Z,93.10
2018-04-17T09:09:35.005Z,92.80
2018-04-17T09:12:02.485Z,89.40
2018-04-17T09:14:30.000Z,93.70
2018-04-17T09:16:57.502Z,94.70
2018-04-17T09:19:25.028Z,95.20
2018-04-17T09:21:52.550Z,93.60
2018-04-17T09:24:20.077Z,93.30
2018-04-17T09:26:47.563Z,90.00
2018-04-17T09:29:15.921Z,93.60
2018-04-17T09:31:43.952Z,93.60
2018-04-17T09:34:11.470Z,88.30
2018-04-17T09:36:39.731Z,88.50
2018-04-17T09:39:07.222Z,88.50
2018-04-17T09:41:34.734Z,90.60
2018-04-17T09:44:02.270Z,90.30
2018-04-17T09:46:29.773Z,91.40
2018-04-17T09:48:57.264Z,91.00
2018-04-17T09:51:24.781Z,91.10
2018-04-17T09:53:53.028Z,90.00
2018-04-17T09:56:20.561Z,90.00
2018-04-17T09:58:48.073Z,93.10
2018-04-17T10:01:22.328Z,84.40
2018-04-17T10:03:49.821Z,84.30
2018-04-17T10:06:17.356Z,86.60
2018-04-17T10:08:45.682Z,86.70
2018-04-17T10:11:13.149Z,80.10
2018-04-17T10:13:40.662Z,90.40
2018-04-17T10:16:08.158Z,91.40
2018-04-17T10:18:35.674Z,90.00
2018-04-17T10:21:03.153Z,83.40
2018-04-17T10:23:31.439Z,87.50
2018-04-17T10:25:58.921Z,87.40
2018-04-17T10:28:26.413Z,85.20
2018-04-17T10:30:53.926Z,82.40
2018-04-17T10:33:21.435Z,81.00
2018-04-17T10:35:49.132Z,83.80
2018-04-17T10:38:16.633Z,87.30
2018-04-17T10:40:44.114Z,88.40
2018-04-17T10:43:11.625Z,83.20
2018-04-17T10:45:39.134Z,80.90
2018-04-17T10:48:06.649Z,73.90
2018-04-17T10:50:34.157Z,74.50
2018-04-17T10:53:02.407Z,77.90
2018-04-17T10:55:29.953Z,77.80
2018-04-17T10:57:57.438Z,73.50
2018-04-17T11:00:24.964Z,74.90
2018-04-17T11:02:52.472Z,79.90
2018-04-17T11:05:20.005Z,70.50
2018-04-17T11:07:47.528Z,77.60
2018-04-17T11:10:15.030Z,72.60
2018-04-17T11:12:43.319Z,75.50
2018-04-17T11:15:10.810Z,75.40
2018-04-17T11:17:38.313Z,80.60
2018-04-17T11:20:06.561Z,75.30
2018-04-17T11:22:34.069Z,75.30
2018-04-17T11:25:01.548Z,72.20
2018-04-17T11:27:29.068Z,72.60
2018-04-17T11:29:57.349Z,66.40
2018-04-17T11:32:24.829Z,66.40
2018-04-17T11:34:52.310Z,70.80
2018-04-17T11:37:19.816Z,68.80
2018-04-17T11:39:47.381Z,66.70
2018-04-17T11:42:14.889Z,63.30
2018-04-17T11:44:42.385Z,60.30
2018-04-17T11:47:09.961Z,64.60
2018-04-17T11:49:37.440Z,72.60
2018-04-17T11:52:04.944Z,63.70
2018-04-17T11:54:33.220Z,65.10
2018-04-17T11:57:01.497Z,60.70
2018-04-17T11:59:28.993Z,60.70
2018-04-17T12:01:56.503Z,58.30
2018-04-17T12:04:23.982Z,59.20
2018-04-17T12:06:51.537Z,60.20
2018-04-17T12:09:19.046Z,63.70
2018-04-17T12:11:46.561Z,64.00
2018-04-17T12:14:14.074Z,62.80
2018-04-17T12:16:42.347Z,60.30
2018-04-17T12:19:09.859Z,60.30
2018-04-17T12:21:37.381Z,59.50
2018-04-17T12:24:05.649Z,58.50
2018-04-17T12:26:33.901Z,60.20
2018-04-17T12:29:01.441Z,60.10
2018-04-17T12:31:28.917Z,61.00
2018-04-17T12:33:57.221Z,60.50
2018-04-17T12:36:25.492Z,58.80
2018-04-17T12:38:52.984Z,58.80
2018-04-17T12:41:20.508Z,58.40
2018-04-17T12:43:48.786Z,59.50
2018-04-17T12:46:16.308Z,59.40
2018-04-17T12:48:44.714Z,60.80
2018-04-17T12:51:12.780Z,61.70
2018-04-17T12:53:40.257Z,59.40
2018-04-17T12:56:07.775Z,58.90
2018-04-17T12:58:35.294Z,59.90
2018-04-17T13:01:02.787Z,58.60
2018-04-17T13:03:31.033Z,57.40
2018-04-17T13:05:58.551Z,57.40
2018-04-17T13:08:26.075Z,57.40
2018-04-17T13:10:53.562Z,58.00
2018-04-17T13:13:21.825Z,56.70
2018-04-17T13:15:49.344Z,56.70
2018-04-17T13:18:17.130Z,59.40
2018-04-17T13:20:44.609Z,57.30
2018-04-17T13:23:12.911Z,59.00
2018-04-17T13:25:40.407Z,59.00
2018-04-17T13:28:07.908Z,58.30
2018-04-17T13:30:35.469Z,55.30
2018-04-17T13:33:03.009Z,55.90
2018-04-17T13:35:30.528Z,55.30
2018-04-17T13:37:58.056Z,55.20
2018-04-17T13:40:25.572Z,58.10
2018-04-17T13:42:53.089Z,55.90
2018-04-17T13:45:20.595Z,54.30
2018-04-17T13:47:48.123Z,56.30
2018-04-17T13:50:15.601Z,57.00
2018-04-17T13:52:43.102Z,56.10
2018-04-17T13:55:10.605Z,57.80
2018-04-17T13:57:38.119Z,57.80
2018-04-17T14:00:05.688Z,54.20
2018-04-17T14:02:33.230Z,53.00
2018-04-17T14:05:00.737Z,55.00
2018-04-17T14:07:28.209Z,54.70
2018-04-17T14:09:55.767Z,54.50
2018-04-17T14:12:23.229Z,54.20
2018-04-17T14:14:51.489Z,50.20
2018-04-17T14:17:18.991Z,50.20
2018-04-17T14:19:47.341Z,52.10
2018-04-17T14:22:15.601Z,51.00
2018-04-17T14:24:43.084Z,51.00
2018-04-17T14:27:10.599Z,50.10
2018-04-17T14:29:38.089Z,50.00
2018-04-17T14:32:06.375Z,51.50
2018-04-17T14:34:34.604Z,51.50
2018-04-17T14:37:02.120Z,50.10
2018-04-17T14:39:29.560Z,50.70
2018-04-17T14:41:57.077Z,55.50
2018-04-17T14:44:24.603Z,54.20
2018-04-17T14:46:52.081Z,52.90
2018-04-17T14:49:20.353Z,51.40
2018-04-17T14:51:47.837Z,51.30
2018-04-17T14:54:15.360Z,50.60
2018-04-17T14:56:42.850Z,50.60
2018-04-17T14:59:10.371Z,50.70
2018-04-17T15:01:37.892Z,49.20
2018-04-17T15:04:05.409Z,49.70
2018-04-17T15:06:32.882Z,50.20
2018-04-17T15:09:01.148Z,49.10
2018-04-17T15:11:28.620Z,49.60
2018-04-17T15:13:56.133Z,48.50
2018-04-17T15:16:23.635Z,48.40
2018-04-17T15:18:51.885Z,48.90
2018-04-17T15:21:19.376Z,48.90
2018-04-17T15:23:46.889Z,51.20
2018-04-17T15:26:14.369Z,49.30
2018-04-17T15:28:42.645Z,48.50
2018-04-17T15:31:10.910Z,47.90
2018-04-17T15:33:38.385Z,47.90
2018-04-17T15:36:06.683Z,49.60
2018-04-17T15:38:34.177Z,49.50
2018-04-17T15:41:01.699Z,48.80
2018-04-17T15:43:29.197Z,49.00
2018-04-17T15:45:56.696Z,49.60
2018-04-17T15:48:24.220Z,49.70
2018-04-17T15:50:51.709Z,49.60
2018-04-17T15:53:20.017Z,51.00
2018-04-17T15:55:47.519Z,51.10
2018-04-17T15:58:15.027Z,53.50
2018-04-17T16:00:42.533Z,53.50
2018-04-17T16:03:10.054Z,54.20
2018-04-17T16:05:37.530Z,54.10
2018-04-17T16:08:05.021Z,54.80
2018-04-17T16:10:32.536Z,55.10
2018-04-17T16:13:00.041Z,55.60
2018-04-17T16:15:28.302Z,55.10
2018-04-17T16:17:55.824Z,55.10
2018-04-17T16:20:23.345Z,55.80
2018-04-17T16:22:50.840Z,56.00
2018-04-17T16:25:18.350Z,56.20
2018-04-17T16:27:45.855Z,55.40
2018-04-17T16:30:13.359Z,57.00
2018-04-17T16:32:40.868Z,57.70
2018-04-17T16:35:08.368Z,56.30
2018-04-17T16:37:35.849Z,56.50
2018-04-17T16:40:03.358Z,57.20
2018-04-17T16:42:30.854Z,57.20
2018-04-17T16:44:58.369Z,56.80
2018-04-17T16:47:25.856Z,56.50
2018-04-17T16:49:53.358Z,57.20
2018-04-17T16:52:20.869Z,57.60
2018-04-17T16:54:48.374Z,58.10
2018-04-17T16:57:17.721Z,58.60
2018-04-17T16:59:46.005Z,57.60
2018-04-17T17:02:19.031Z,57.60
2018-04-17T17:04:46.541Z,59.30
2018-04-17T17:07:14.020Z,59.10
2018-04-17T17:09:41.553Z,58.70
2018-04-17T17:12:09.804Z,58.70
2018-04-17T17:14:37.307Z,58.30
2018-04-17T17:17:06.114Z,58.00
2018-04-17T17:19:33.588Z,58.30
2018-04-17T17:22:01.102Z,58.40
2018-04-17T17:24:29.144Z,59.30
2018-04-17T17:26:56.673Z,60.00
2018-04-17T17:29:24.174Z,59.80
2018-04-17T17:31:51.705Z,59.70
2018-04-17T17:34:19.209Z,60.10
2018-04-17T17:36:46.721Z,60.40
2018-04-17T17:39:14.240Z,60.90
2018-04-17T17:41:41.766Z,60.40
2018-04-17T17:44:09.301Z,59.80
2018-04-17T17:46:36.744Z,61.00
2018-04-17T17:49:05.565Z,62.30
2018-04-17T17:51:33.378Z,62.90
2018-04-17T17:54:00.971Z,63.80
2018-04-17T17:56:28.501Z,64.30
2018-04-17T17:58:56.539Z,66.30
2018-04-17T18:01:24.108Z,66.90
2018-04-17T18:03:51.652Z,67.40
2018-04-17T18:06:19.149Z,67.90
2018-04-17T18:08:46.692Z,68.90
2018-04-17T18:11:14.238Z,71.00
2018-04-17T18:13:41.752Z,72.60
2018-04-17T18:16:10.040Z,77.00
2018-04-17T18:18:37.519Z,82.10
2018-04-17T18:21:05.079Z,92.30
2018-04-17T18:23:40.101Z,96.40
2018-04-17T18:26:08.598Z,98.90
2018-04-17T18:28:36.101Z,99.90
2018-04-17T18:31:03.685Z,99.90
2018-04-17T18:33:31.170Z,99.90
2018-04-17T18:35:58.665Z,99.90
2018-04-17T18:38:26.935Z,99.90
2018-04-17T18:40:54.771Z,99.90
2018-04-17T18:43:22.284Z,99.90
2018-04-17T18:45:49.797Z,99.90
2018-04-17T18:48:17.325Z,99.90
2018-04-17T18:50:44.820Z,99.90
2018-04-17T18:53:12.390Z,99.90
2018-04-17T18:55:39.949Z,99.90
2018-04-17T18:58:07.505Z,99.90
2018-04-17T19:00:35.061Z,99.90
2018-04-17T19:03:02.681Z,99.90
2018-04-17T19:05:30.200Z,99.90
2018-04-17T19:07:58.439Z,99.90
2018-04-17T19:10:26.004Z,99.90
2018-04-17T19:12:53.580Z,99.90
2018-04-17T19:15:21.102Z,99.90
2018-04-17T19:17:48.591Z,99.90
2018-04-17T19:20:16.120Z,99.90
2018-04-17T19:22:43.654Z,99.90
2018-04-17T19:25:11.145Z,99.90
2018-04-17T19:27:39.302Z,99.90
2018-04-17T19:30:08.369Z,99.90
2018-04-17T19:32:35.854Z,99.90
2018-04-17T19:35:03.409Z,99.90
2018-04-17T19:37:30.980Z,99.90
2018-04-17T19:39:58.429Z,99.90
2018-04-17T19:42:25.948Z,99.90
2018-04-17T19:44:53.465Z,99.90
2018-04-17T19:47:20.950Z,99.90
2018-04-17T19:49:48.469Z,99.90
2018-04-17T19:52:15.956Z,99.90
2018-04-17T19:54:43.491Z,99.90
2018-04-17T19:57:11.769Z,99.90
2018-04-17T19:59:39.252Z,99.90
2018-04-17T20:02:06.785Z,99.90
2018-04-17T20:04:35.034Z,99.90
2018-04-17T20:07:03.223Z,99.90
2018-04-17T20:09:30.718Z,99.90
2018-04-17T20:11:58.230Z,99.90
2018-04-17T20:14:25.711Z,99.90
2018-04-17T20:16:53.207Z,99.90
2018-04-17T20:19:20.717Z,99.90
2018-04-17T20:21:48.961Z,99.90
2018-04-17T20:24:17.358Z,99.90
2018-04-17T20:26:45.648Z,99.90
2018-04-17T20:29:13.134Z,99.90
2018-04-17T20:31:40.691Z,99.90
2018-04-17T20:34:08.174Z,99.90
2018-04-17T20:36:35.691Z,99.90
2018-04-17T20:39:03.208Z,99.90
2018-04-17T20:41:30.704Z,99.90
2018-04-17T20:43:58.251Z,99.90
2018-04-17T20:46:26.501Z,99.90
2018-04-17T20:48:54.002Z,99.90
2018-04-17T20:51:21.514Z,99.90
2018-04-17T20:53:49.778Z,99.90
2018-04-17T20:56:17.276Z,99.90
2018-04-17T20:58:44.773Z,99.90
2018-04-17T21:01:12.429Z,99.90
2018-04-17T21:03:39.881Z,99.90
2018-04-17T21:06:07.369Z,99.90
2018-04-17T21:08:34.888Z,99.90
2018-04-17T21:11:02.853Z,99.90
2018-04-17T21:13:30.354Z,99.90
2018-04-17T21:15:57.926Z,99.90
2018-04-17T21:18:26.191Z,99.90
2018-04-17T21:20:53.701Z,99.90
2018-04-17T21:23:21.957Z,99.90
2018-04-17T21:25:49.457Z,99.90
2018-04-17T21:28:17.000Z,99.90
2018-04-17T21:30:44.500Z,99.90
2018-04-17T21:33:12.798Z,99.90
2018-04-17T21:35:40.325Z,99.90
2018-04-17T21:38:07.857Z,99.90
2018-04-17T21:40:35.337Z,99.90
2018-04-17T21:43:02.817Z,99.90
2018-04-17T21:45:30.344Z,99.90
2018-04-17T21:47:57.843Z,99.90
2018-04-17T21:50:25.340Z,99.90
2018-04-17T21:52:52.846Z,99.90
2018-04-17T21:55:21.164Z,99.90
2018-04-17T21:57:48.640Z,99.90
2018-04-17T22:00:16.150Z,99.90
2018-04-17T22:02:43.637Z,99.90
2018-04-17T22:05:11.113Z,99.90
2018-04-17T22:07:38.617Z,99.90
2018-04-17T22:10:06.093Z,99.90
2018-04-17T22:12:33.585Z,99.90
2018-04-17T22:15:01.089Z,99.90
2018-04-17T22:17:28.616Z,99.90
2018-04-17T22:19:56.113Z,99.90
2018-04-17T22:22:23.621Z,99.90
2018-04-17T22:24:51.117Z,99.90
2018-04-17T22:27:18.649Z,99.90
2018-04-17T22:29:46.929Z,99.90
2018-04-17T22:32:15.175Z,99.90
2018-04-17T22:34:42.680Z,99.90
2018-04-17T22:37:10.291Z,99.90
2018-04-17T22:39:37.773Z,99.90
2018-04-17T22:42:06.016Z,99.90
2018-04-17T22:44:33.500Z,99.90
2018-04-17T22:47:01.013Z,99.90
2018-04-17T22:49:28.505Z,99.90
2018-04-17T22:51:56.019Z,99.90
2018-04-17T22:54:23.700Z,99.90
2018-04-17T22:56:51.204Z,99.90
2018-04-17T22:59:18.681Z,99.90
2018-04-17T23:01:46.191Z,99.90
2018-04-17T23:04:13.662Z,99.90
2018-04-17T23:06:41.932Z,99.90
2018-04-17T23:09:10.183Z,99.90
2018-04-17T23:11:37.710Z,99.90
2018-04-17T23:14:05.211Z,99.90
2018-04-17T23:16:32.716Z,99.90
2018-04-17T23:19:00.196Z,99.90
2018-04-17T23:21:27.677Z,99.90
2018-04-17T23:23:55.187Z,99.90
2018-04-17T23:26:22.671Z,99.90
2018-04-17T23:28:50.183Z,99.90
2018-04-17T23:31:17.661Z,99.90
2018-04-17T23:33:45.170Z,99.90
2018-04-17T23:36:13.434Z,99.90
2018-04-17T23:38:40.935Z,99.90
2018-04-17T23:41:08.416Z,99.90
2018-04-17T23:43:35.963Z,99.90
2018-04-17T23:46:03.400Z,99.90
2018-04-17T23:48:30.952Z,99.90
2018-04-17T23:50:58.456Z,99.90
2018-04-17T23:53:25.928Z,99.90
2018-04-17T23:55:53.432Z,99.90
2018-04-17T23:58:20.985Z,99.90
